createdAt,value
2019-05-09T00:02:29.454Z,26.40
2019-05-09T00:05:03.413Z,26.40
2019-05-09T00:07:34.308Z,26.30
2019-05-09T00:10:07.002Z,26.40
2019-05-09T00:12:38.939Z,26.40
2019-05-09T00:15:13.505Z,26.40
2019-05-09T00:17:45.144Z,26.40
2019-05-09T00:20:18.167Z,26.40
2019-05-09T00:22:49.894Z,26.40
2019-05-09T00:25:23.606Z,26.50
2019-05-09T00:27:54.982Z,26.50
2019-05-09T00:30:27.748Z,26.50
2019-05-09T00:32:59.399Z,26.50
2019-05-09T00:35:33.830Z,26.50
2019-05-09T00:38:07.219Z,26.60
2019-05-09T00:40:54.595Z,26.60
2019-05-09T00:43:13.164Z,26.60
2019-05-09T00:45:46.653Z,26.60
2019-05-09T00:48:19.701Z,26.70
2019-05-09T00:50:51.568Z,26.70
2019-05-09T00:53:23.502Z,26.80
2019-05-09T00:55:55.548Z,26.90
2019-05-09T00:58:27.617Z,26.90
2019-05-09T01:00:59.597Z,26.90
2019-05-09T01:03:34.191Z,26.90
2019-05-09T01:06:06.370Z,27.00
2019-05-09T01:08:38.579Z,27.00
2019-05-09T01:11:13.159Z,27.10
2019-05-09T01:13:44.250Z,27.10
2019-05-09T01:16:17.190Z,27.20
2019-05-09T01:18:48.949Z,27.20
2019-05-09T01:21:20.570Z,27.20
2019-05-09T01:23:53.900Z,27.30
2019-05-09T01:26:25.978Z,27.30
2019-05-09T01:28:57.899Z,27.30
2019-05-09T01:31:29.683Z,27.30
2019-05-09T01:34:07.061Z,27.40
2019-05-09T01:36:40.108Z,27.50
2019-05-09T01:39:13.664Z,27.50
2019-05-09T01:41:44.543Z,27.50
2019-05-09T01:44:16.074Z,27.50
2019-05-09T01:46:47.900Z,27.50
2019-05-09T01:49:19.700Z,27.60
2019-05-09T01:51:53.555Z,27.60
2019-05-09T01:54:26.293Z,27.60
2019-05-09T01:56:58.426Z,27.60
2019-05-09T01:59:30.693Z,27.70
2019-05-09T02:02:08.338Z,27.80
2019-05-09T02:04:36.206Z,27.80
2019-05-09T02:07:08.096Z,27.90
2019-05-09T02:09:39.414Z,28.00
2019-05-09T02:12:11.082Z,28.00
2019-05-09T02:14:44.029Z,28.10
2019-05-09T02:17:17.243Z,28.20
2019-05-09T02:19:52.825Z,28.20
2019-05-09T02:22:29.317Z,28.30
2019-05-09T02:24:59.879Z,28.30
2019-05-09T02:27:36.986Z,28.40
2019-05-09T02:30:14.774Z,28.50
2019-05-09T02:32:45.080Z,28.50
2019-05-09T02:35:17.132Z,28.50
2019-05-09T02:37:49.790Z,28.60
2019-05-09T02:40:22.212Z,28.60
2019-05-09T02:42:54.073Z,28.60
2019-05-09T02:45:28.405Z,28.60
2019-05-09T02:47:59.966Z,28.60
2019-05-09T02:50:31.487Z,28.70
2019-05-09T02:53:03.701Z,28.70
2019-05-09T02:55:38.554Z,28.70
2019-05-09T02:58:10.035Z,28.80
2019-05-09T03:00:43.029Z,28.80
2019-05-09T03:03:14.839Z,28.80
2019-05-09T03:05:48.776Z,28.90
2019-05-09T03:08:21.748Z,29.00
2019-05-09T03:10:53.738Z,29.00
2019-05-09T03:13:28.674Z,29.00
2019-05-09T03:16:00.021Z,29.10
2019-05-09T03:18:32.060Z,29.10
2019-05-09T03:21:05.201Z,29.10
2019-05-09T03:23:38.853Z,29.20
2019-05-09T03:26:12.187Z,29.20
2019-05-09T03:28:45.575Z,29.20
2019-05-09T03:31:19.692Z,29.20
2019-05-09T03:33:51.630Z,29.30
2019-05-09T03:36:23.572Z,29.30
2019-05-09T03:38:57.700Z,29.40
2019-05-09T03:41:28.900Z,29.40
2019-05-09T03:44:00.134Z,29.50
2019-05-09T03:46:32.703Z,29.50
2019-05-09T03:49:07.492Z,29.50
2019-05-09T03:51:38.885Z,29.60
2019-05-09T03:54:10.526Z,29.60
2019-05-09T03:56:43.690Z,29.60
2019-05-09T03:59:17.460Z,29.70
2019-05-09T04:01:50.366Z,29.70
2019-05-09T04:04:20.984Z,29.70
2019-05-09T04:06:52.163Z,29.80
2019-05-09T04:09:24.177Z,29.80
2019-05-09T04:11:58.295Z,29.80
2019-05-09T04:14:30.531Z,29.90
2019-05-09T04:17:02.572Z,30.00
2019-05-09T04:19:38.040Z,30.10
2019-05-09T04:22:09.469Z,30.20
2019-05-09T04:24:41.502Z,30.40
2019-05-09T04:27:14.508Z,30.60
2019-05-09T04:29:48.267Z,30.70
2019-05-09T04:32:19.449Z,30.90
2019-05-09T04:34:51.424Z,31.00
2019-05-09T04:37:23.572Z,31.00
2019-05-09T04:39:59.569Z,31.10
2019-05-09T04:42:28.827Z,31.10
2019-05-09T04:45:03.414Z,31.10
2019-05-09T04:47:41.370Z,31.10
2019-05-09T04:50:09.357Z,31.00
2019-05-09T04:52:41.887Z,31.00
2019-05-09T04:55:14.789Z,31.00
2019-05-09T04:57:48.592Z,31.10
2019-05-09T05:00:21.843Z,31.30
2019-05-09T05:02:55.068Z,31.30
2019-05-09T05:05:28.353Z,31.30
2019-05-09T05:07:59.004Z,31.30
2019-05-09T05:10:32.093Z,31.20
2019-05-09T05:13:03.857Z,31.20
2019-05-09T05:15:37.674Z,31.20
2019-05-09T05:18:17.351Z,31.20
2019-05-09T05:20:48.823Z,31.10
2019-05-09T05:23:21.403Z,31.10
2019-05-09T05:25:52.926Z,31.10
2019-05-09T05:28:24.180Z,31.10
2019-05-09T05:30:58.077Z,31.10
2019-05-09T05:33:30.284Z,31.10
2019-05-09T05:36:03.330Z,31.10
2019-05-09T05:38:37.557Z,31.10
2019-05-09T05:41:08.837Z,31.10
2019-05-09T05:43:44.565Z,31.10
2019-05-09T05:46:15.180Z,31.10
2019-05-09T05:48:48.660Z,31.10
2019-05-09T05:51:21.960Z,31.20
2019-05-09T05:53:54.333Z,31.30
2019-05-09T05:56:27.986Z,31.30
2019-05-09T05:58:59.572Z,31.40
2019-05-09T06:01:31.360Z,31.40
2019-05-09T06:04:03.297Z,31.50
2019-05-09T06:06:37.334Z,31.50
2019-05-09T06:09:09.558Z,31.60
2019-05-09T06:11:41.423Z,31.70
2019-05-09T06:14:13.262Z,31.70
2019-05-09T06:16:45.294Z,31.80
2019-05-09T06:19:17.830Z,31.80
2019-05-09T06:21:52.301Z,31.90
2019-05-09T06:24:23.165Z,31.90
2019-05-09T06:26:55.399Z,31.90
2019-05-09T06:29:28.609Z,31.90
2019-05-09T06:31:59.726Z,31.90
2019-05-09T06:34:31.216Z,31.90
2019-05-09T06:37:03.557Z,31.80
2019-05-09T06:39:37.179Z,31.80
2019-05-09T06:42:28.674Z,31.80
2019-05-09T06:45:01.736Z,31.70
2019-05-09T06:47:34.776Z,31.80
2019-05-09T06:50:09.113Z,31.80
2019-05-09T06:52:40.419Z,31.80
2019-05-09T06:55:12.721Z,31.80
2019-05-09T06:57:44.202Z,31.80
2019-05-09T07:00:18.148Z,31.80
2019-05-09T07:02:51.102Z,31.80
2019-05-09T07:05:25.437Z,31.80
2019-05-09T07:07:58.462Z,31.70
2019-05-09T07:10:30.522Z,31.70
2019-05-09T07:13:02.103Z,31.80
2019-05-09T07:15:33.803Z,31.80
2019-05-09T07:18:07.949Z,31.80
2019-05-09T07:20:39.351Z,31.90
2019-05-09T07:23:23.601Z,32.00
2019-05-09T07:25:58.155Z,32.00
2019-05-09T07:28:30.210Z,32.00
2019-05-09T07:31:03.217Z,32.00
2019-05-09T07:33:38.212Z,32.10
2019-05-09T07:36:08.656Z,32.00
2019-05-09T07:38:40.183Z,31.90
2019-05-09T07:41:11.669Z,31.90
2019-05-09T07:43:43.685Z,31.90
2019-05-09T07:46:17.754Z,31.90
2019-05-09T07:48:50.916Z,31.90
2019-05-09T07:51:22.800Z,31.90
2019-05-09T07:53:55.067Z,31.80
2019-05-09T07:56:28.484Z,31.80
2019-05-09T07:59:00.230Z,31.70
2019-05-09T08:01:32.085Z,31.70
2019-05-09T08:04:04.083Z,31.70
2019-05-09T08:06:37.966Z,31.60
2019-05-09T08:09:12.306Z,31.60
2019-05-09T08:11:43.701Z,31.60
2019-05-09T08:14:17.584Z,31.60
2019-05-09T08:16:49.164Z,31.60
2019-05-09T08:19:24.207Z,31.60
2019-05-09T08:21:57.523Z,31.60
2019-05-09T08:24:28.854Z,31.60
2019-05-09T08:27:01.127Z,31.50
2019-05-09T08:29:32.736Z,31.50
2019-05-09T08:32:07.283Z,31.50
2019-05-09T08:34:38.741Z,31.50
2019-05-09T08:37:12.558Z,31.50
2019-05-09T08:39:43.978Z,31.60
2019-05-09T08:42:19.635Z,31.60
2019-05-09T08:44:49.333Z,31.60
2019-05-09T08:47:20.737Z,31.60
2019-05-09T08:49:53.504Z,31.50
2019-05-09T08:52:24.976Z,31.50
2019-05-09T08:54:58.073Z,31.50
2019-05-09T08:57:30.242Z,31.40
2019-05-09T09:00:02.097Z,31.40
2019-05-09T09:02:37.536Z,31.40
2019-05-09T09:05:09.416Z,31.40
2019-05-09T09:07:41.058Z,31.40
2019-05-09T09:10:13.235Z,31.40
2019-05-09T09:12:47.527Z,31.40
2019-05-09T09:15:21.188Z,31.30
2019-05-09T09:17:53.274Z,31.20
2019-05-09T09:20:25.366Z,31.00
2019-05-09T09:22:58.232Z,30.90
2019-05-09T09:25:30.346Z,30.70
2019-05-09T09:28:02.128Z,30.50
2019-05-09T09:30:33.674Z,30.20
2019-05-09T09:33:05.441Z,29.90
2019-05-09T09:35:38.280Z,29.40
2019-05-09T09:38:10.943Z,29.00
2019-05-09T09:40:42.900Z,28.40
2019-05-09T09:43:17.439Z,27.90
2019-05-09T09:45:52.990Z,27.60
2019-05-09T09:48:28.337Z,27.40
2019-05-09T09:50:58.714Z,27.40
2019-05-09T09:53:30.590Z,27.30
2019-05-09T09:56:02.654Z,27.40
2019-05-09T09:58:34.653Z,27.40
2019-05-09T10:01:08.980Z,27.40
2019-05-09T10:03:41.046Z,27.40
2019-05-09T10:06:12.420Z,27.40
2019-05-09T10:08:43.944Z,27.30
2019-05-09T10:11:17.818Z,27.20
2019-05-09T10:13:51.919Z,27.00
2019-05-09T10:16:28.699Z,26.70
2019-05-09T10:18:58.171Z,26.50
2019-05-09T10:21:33.418Z,26.50
2019-05-09T10:24:05.302Z,26.40
2019-05-09T10:26:39.002Z,26.40
2019-05-09T10:29:11.524Z,26.40
2019-05-09T10:31:43.454Z,26.40
2019-05-09T10:34:17.637Z,26.40
2019-05-09T10:36:49.456Z,26.40
2019-05-09T10:39:21.361Z,26.50
2019-05-09T10:41:53.923Z,26.40
2019-05-09T10:44:28.402Z,26.50
2019-05-09T10:47:02.306Z,26.50
2019-05-09T10:49:34.123Z,26.50
2019-05-09T10:52:09.545Z,26.40
2019-05-09T10:54:40.442Z,26.40
2019-05-09T10:57:12.384Z,26.40
2019-05-09T10:59:44.906Z,26.30
2019-05-09T11:02:17.494Z,26.30
2019-05-09T11:04:49.508Z,26.30
2019-05-09T11:07:23.075Z,26.30
2019-05-09T11:09:54.681Z,26.30
2019-05-09T11:12:27.579Z,26.40
2019-05-09T11:14:59.642Z,26.50
2019-05-09T11:17:31.200Z,26.50
2019-05-09T11:20:04.896Z,26.60
2019-05-09T11:22:38.630Z,26.60
2019-05-09T11:25:09.270Z,26.60
2019-05-09T11:27:41.234Z,26.60
2019-05-09T11:30:13.147Z,26.60
2019-05-09T11:32:45.085Z,26.60
2019-05-09T11:35:17.659Z,26.60
2019-05-09T11:37:49.387Z,26.60
2019-05-09T11:40:20.980Z,26.60
2019-05-09T11:42:52.511Z,26.60
2019-05-09T11:45:25.307Z,26.60
2019-05-09T11:47:58.272Z,26.60
2019-05-09T11:50:30.517Z,26.60
2019-05-09T11:53:02.318Z,26.50
2019-05-09T11:55:36.557Z,26.50
2019-05-09T11:58:10.201Z,26.50
2019-05-09T12:00:42.162Z,26.50
2019-05-09T12:03:14.102Z,26.50
2019-05-09T12:05:47.593Z,26.50
2019-05-09T12:08:20.026Z,26.50
2019-05-09T12:10:51.328Z,26.40
2019-05-09T12:13:23.123Z,26.40
2019-05-09T12:15:55.341Z,26.30
2019-05-09T12:18:28.583Z,26.30
2019-05-09T12:21:00.846Z,26.30
2019-05-09T12:23:32.547Z,26.30
2019-05-09T12:26:04.615Z,26.30
2019-05-09T12:28:38.680Z,26.30
2019-05-09T12:31:09.925Z,26.30
2019-05-09T12:34:00.957Z,26.30
2019-05-09T12:36:32.552Z,26.20
2019-05-09T12:39:04.500Z,26.20
2019-05-09T12:41:38.431Z,26.10
2019-05-09T12:44:09.377Z,26.20
2019-05-09T12:46:41.409Z,26.20
2019-05-09T12:49:13.332Z,26.20
2019-05-09T12:51:52.897Z,26.30
2019-05-09T12:54:27.969Z,26.30
2019-05-09T12:56:59.271Z,26.30
2019-05-09T12:59:45.515Z,26.30
2019-05-09T13:02:10.921Z,26.20
2019-05-09T13:04:52.669Z,26.20
2019-05-09T13:07:24.732Z,26.20
2019-05-09T13:09:58.033Z,26.20
2019-05-09T13:12:31.386Z,26.20
2019-05-09T13:15:09.554Z,26.10
2019-05-09T13:17:42.692Z,26.10
2019-05-09T13:20:17.911Z,26.20
2019-05-09T13:23:00.516Z,26.20
2019-05-09T13:25:32.412Z,26.20
2019-05-09T13:28:04.402Z,26.20
2019-05-09T13:30:39.390Z,26.20
2019-05-09T13:33:11.480Z,26.20
2019-05-09T13:35:43.329Z,26.30
2019-05-09T13:38:17.774Z,26.30
2019-05-09T13:40:53.631Z,26.30
2019-05-09T13:43:20.594Z,26.30
2019-05-09T13:45:52.601Z,26.30
2019-05-09T13:48:56.209Z,26.30
2019-05-09T13:51:04.677Z,26.30
2019-05-09T13:53:38.708Z,26.30
2019-05-09T13:56:10.340Z,26.40
2019-05-09T13:58:42.042Z,26.30
2019-05-09T14:01:13.185Z,26.40
2019-05-09T14:03:44.871Z,26.30
2019-05-09T14:06:16.383Z,26.30
2019-05-09T14:08:49.717Z,26.30
2019-05-09T14:11:22.796Z,26.30
2019-05-09T14:14:12.552Z,26.30
2019-05-09T14:16:44.294Z,26.30
2019-05-09T14:19:39.627Z,26.30
2019-05-09T14:28:22.462Z,26.20
2019-05-09T14:30:59.395Z,26.20
2019-05-09T14:33:39.816Z,26.20
2019-05-09T14:36:08.237Z,26.20
2019-05-09T14:42:11.317Z,26.10
2019-05-09T14:44:47.245Z,26.10
2019-05-09T14:47:19.838Z,26.10
2019-05-09T14:55:22.174Z,26.00
2019-05-09T14:58:19.227Z,26.00
2019-05-09T15:00:51.175Z,26.00
2019-05-09T15:03:23.197Z,26.00
2019-05-09T15:05:57.266Z,26.00
2019-05-09T15:08:40.859Z,25.90
2019-05-09T15:11:04.429Z,25.90
2019-05-09T15:13:36.151Z,25.80
2019-05-09T15:16:18.467Z,25.80
2019-05-09T15:18:49.938Z,25.80
2019-05-09T15:21:26.980Z,25.80
2019-05-09T15:23:58.738Z,25.80
2019-05-09T15:26:31.330Z,25.80
2019-05-09T15:29:08.257Z,25.80
2019-05-09T15:31:45.056Z,25.80
2019-05-09T15:34:20.551Z,25.80
2019-05-09T15:39:48.437Z,25.80
2019-05-09T15:42:32.935Z,25.80
2019-05-09T15:45:11.911Z,25.80
2019-05-09T15:47:40.987Z,25.80
2019-05-09T15:50:22.508Z,25.80
2019-05-09T15:52:53.584Z,25.80
2019-05-09T15:59:08.377Z,25.80
2019-05-09T16:01:40.169Z,25.80
2019-05-09T16:04:12.062Z,25.80
2019-05-09T16:06:44.446Z,25.80
2019-05-09T16:09:22.321Z,25.80
2019-05-09T16:12:00.300Z,25.80
2019-05-09T16:14:29.937Z,25.80
2019-05-09T16:17:02.763Z,25.80
2019-05-09T16:19:34.504Z,25.80
2019-05-09T16:22:08.027Z,25.80
2019-05-09T16:24:39.972Z,25.80
2019-05-09T16:27:11.921Z,25.80
2019-05-09T16:29:43.455Z,25.80
2019-05-09T16:32:17.636Z,25.80
2019-05-09T16:34:48.626Z,25.80
2019-05-09T16:37:20.123Z,25.80
2019-05-09T16:39:52.412Z,25.80
2019-05-09T16:42:24.280Z,25.80
2019-05-09T16:44:59.162Z,25.80
2019-05-09T16:47:29.165Z,25.80
2019-05-09T16:50:00.885Z,25.80
2019-05-09T16:52:33.883Z,25.80
2019-05-09T16:55:11.456Z,25.80
2019-05-09T16:57:43.318Z,25.80
2019-05-09T17:00:27.472Z,25.80
2019-05-09T17:03:00.151Z,25.80
2019-05-09T17:05:31.442Z,25.80
2019-05-09T17:08:08.011Z,25.80
2019-05-09T17:10:38.676Z,25.80
2019-05-09T17:13:13.635Z,25.80
2019-05-09T17:15:45.626Z,25.80
2019-05-09T17:18:18.955Z,25.80
2019-05-09T17:20:54.500Z,25.80
2019-05-09T17:23:29.613Z,25.80
2019-05-09T17:26:08.615Z,25.80
2019-05-09T17:28:37.631Z,25.80
2019-05-09T17:31:11.554Z,25.70
2019-05-09T17:33:42.625Z,25.70
2019-05-09T17:36:14.768Z,25.70
2019-05-09T17:38:47.839Z,25.70
2019-05-09T17:41:22.170Z,25.70
2019-05-09T17:43:54.447Z,25.70
2019-05-09T17:46:27.556Z,25.70
2019-05-09T17:49:02.453Z,25.70
2019-05-09T17:51:41.770Z,25.70
2019-05-09T17:54:10.659Z,25.70
2019-05-09T17:56:43.167Z,25.70
2019-05-09T17:59:13.929Z,25.70
2019-05-09T18:01:48.088Z,25.70
2019-05-09T18:04:20.920Z,25.80
2019-05-09T18:06:54.810Z,25.80
2019-05-09T18:09:28.579Z,25.80
2019-05-09T18:11:59.800Z,25.80
2019-05-09T18:14:31.266Z,25.80
2019-05-09T18:17:03.512Z,25.90
2019-05-09T18:19:37.938Z,25.90
2019-05-09T18:22:10.647Z,25.80
2019-05-09T18:24:42.540Z,25.80
2019-05-09T18:27:18.128Z,25.80
2019-05-09T18:29:49.781Z,25.80
2019-05-09T18:32:21.461Z,25.80
2019-05-09T18:34:54.052Z,25.80
2019-05-09T18:37:27.851Z,25.80
2019-05-09T18:39:58.482Z,25.80
2019-05-09T18:42:29.918Z,25.80
2019-05-09T18:45:03.081Z,25.80
2019-05-09T18:47:37.238Z,25.80
2019-05-09T18:50:09.688Z,25.80
2019-05-09T18:52:44.766Z,25.80
2019-05-09T18:55:15.725Z,25.80
2019-05-09T18:57:47.794Z,25.80
2019-05-09T19:00:23.389Z,25.80
2019-05-09T19:02:54.214Z,25.80
2019-05-09T19:05:26.673Z,25.80
2019-05-09T19:07:58.721Z,25.80
2019-05-09T19:10:30.501Z,25.70
2019-05-09T19:13:03.879Z,25.70
2019-05-09T19:15:37.045Z,25.80
2019-05-09T19:18:08.687Z,25.80
2019-05-09T19:20:40.164Z,25.70
2019-05-09T19:23:11.798Z,25.80
2019-05-09T19:25:44.085Z,25.80
2019-05-09T19:28:16.300Z,25.80
2019-05-09T19:30:47.914Z,25.80
2019-05-09T19:33:19.485Z,25.70
2019-05-09T19:35:51.372Z,25.70
2019-05-09T19:38:23.170Z,25.70
2019-05-09T19:40:55.229Z,25.70
2019-05-09T19:43:27.277Z,25.70
2019-05-09T19:45:58.544Z,25.70
2019-05-09T19:48:40.934Z,25.70
2019-05-09T19:51:12.367Z,25.70
2019-05-09T19:53:43.772Z,25.70
2019-05-09T19:56:15.722Z,25.70
2019-05-09T19:58:47.816Z,25.70
2019-05-09T20:01:21.001Z,25.80
2019-05-09T20:03:53.138Z,25.80
2019-05-09T20:06:25.149Z,25.80
2019-05-09T20:08:57.059Z,25.80
2019-05-09T20:11:32.993Z,25.80
2019-05-09T20:14:04.310Z,25.80
2019-05-09T20:16:37.756Z,25.90
2019-05-09T20:19:09.184Z,26.00
2019-05-09T20:21:41.301Z,25.90
2019-05-09T20:24:13.351Z,26.00
2019-05-09T20:26:45.406Z,26.00
2019-05-09T20:29:17.087Z,26.00
2019-05-09T20:31:48.862Z,26.00
2019-05-09T20:34:20.862Z,26.00
2019-05-09T20:36:52.678Z,26.00
2019-05-09T20:39:26.653Z,25.90
2019-05-09T20:41:59.076Z,25.90
2019-05-09T20:44:31.137Z,25.90
2019-05-09T20:47:03.845Z,25.90
2019-05-09T20:49:35.835Z,25.90
2019-05-09T20:52:07.622Z,25.90
2019-05-09T20:54:39.177Z,25.90
2019-05-09T20:57:11.387Z,26.00
2019-05-09T20:59:46.026Z,25.90
2019-05-09T21:02:18.227Z,25.90
2019-05-09T21:04:50.529Z,25.90
2019-05-09T21:07:24.671Z,25.90
2019-05-09T21:09:56.926Z,25.90
2019-05-09T21:12:28.661Z,25.80
2019-05-09T21:15:01.332Z,25.90
2019-05-09T21:17:33.534Z,25.90
2019-05-09T21:20:06.746Z,25.90
2019-05-09T21:22:39.603Z,25.90
2019-05-09T21:25:11.925Z,25.90
2019-05-09T21:27:43.269Z,25.90
2019-05-09T21:30:15.138Z,25.90
2019-05-09T21:32:47.240Z,25.90
2019-05-09T21:35:19.088Z,25.90
2019-05-09T21:37:50.858Z,25.90
2019-05-09T21:40:23.843Z,25.90
2019-05-09T21:42:56.126Z,25.90
2019-05-09T21:45:28.153Z,25.90
2019-05-09T21:48:00.250Z,25.90
2019-05-09T21:50:32.140Z,25.90
2019-05-09T21:53:03.987Z,25.90
2019-05-09T21:55:35.749Z,25.90
2019-05-09T21:58:07.268Z,25.90
2019-05-09T22:00:41.930Z,26.00
2019-05-09T22:03:13.970Z,25.90
2019-05-09T22:05:46.325Z,25.90
2019-05-09T22:08:20.166Z,25.90
2019-05-09T22:10:51.428Z,25.90
2019-05-09T22:13:23.746Z,25.90
2019-05-09T22:15:55.599Z,25.90
2019-05-09T22:18:27.176Z,25.90
2019-05-09T22:20:58.479Z,25.90
2019-05-09T22:23:29.904Z,25.90
2019-05-09T22:26:01.196Z,25.90
2019-05-09T22:28:33.134Z,25.90
2019-05-09T22:31:06.259Z,25.90
2019-05-09T22:33:38.180Z,25.90
2019-05-09T22:36:10.170Z,25.90
2019-05-09T22:38:43.634Z,25.90
2019-05-09T22:41:14.138Z,25.90
2019-05-09T22:43:46.125Z,25.90
2019-05-09T22:46:17.629Z,25.90
2019-05-09T22:48:49.596Z,25.90
2019-05-09T22:51:31.544Z,25.90
2019-05-09T22:54:12.383Z,25.90
2019-05-09T22:56:36.358Z,25.90
2019-05-09T22:59:10.291Z,25.90
2019-05-09T23:01:42.318Z,25.90
2019-05-09T23:04:14.306Z,25.90
2019-05-09T23:07:05.536Z,25.90
2019-05-09T23:09:37.518Z,25.90
2019-05-09T23:12:09.580Z,25.90
2019-05-09T23:14:41.730Z,25.90
2019-05-09T23:17:14.004Z,25.90
2019-05-09T23:19:49.093Z,25.90
2019-05-09T23:22:19.418Z,25.90
2019-05-09T23:24:51.435Z,25.90
2019-05-09T23:27:23.404Z,25.90
2019-05-09T23:29:55.221Z,25.90
2019-05-09T23:32:27.981Z,25.90
2019-05-09T23:35:00.188Z,25.90
2019-05-09T23:37:32.104Z,26.00
2019-05-09T23:40:04.044Z,26.00
2019-05-09T23:42:35.676Z,25.90
2019-05-09T23:45:10.021Z,26.00
2019-05-09T23:47:41.117Z,26.00
2019-05-09T23:54:03.886Z,26.00
2019-05-09T23:56:36.894Z,26.00
2019-05-09T23:59:10.126Z,26.00
